Time;durP1;ratioP1;P1;durP2;ratioP2;P2;SDS_P1;SDS_P2;PMS_P1;PMS_P2;Temp;Humidity;BMP_temperature;BMP_pressure;BME280_temperature;BME280_humidity;BME280_pressure;Samples;Min_cycle;Max_cycle;Signal;HPM_P1;HPM_P2
2023/08/07 00:00:38;;;;;;;4.80;1.88;;;;;;;15.99;79.67;100947.63;7402070;19;19938;-76
2023/08/07 00:03:07;;;;;;;6.00;2.00;;;;;;;16.00;78.67;100947.44;7402785;19;20628;-76
2023/08/07 00:05:35;;;;;;;3.38;1.60;;;;;;;16.04;78.80;100948.69;7403097;19;19923;-76
2023/08/07 00:08:04;;;;;;;5.05;1.95;;;;;;;16.02;79.21;100948.03;7402733;19;19946;-76
2023/08/07 00:10:32;;;;;;;2.97;1.70;;;;;;;16.04;79.29;100951.41;7401289;19;19926;-76
2023/08/07 00:13:03;;;;;;;4.97;1.70;;;;;;;16.03;79.23;100947.00;7402196;19;19926;-77
2023/08/07 00:15:33;;;;;;;2.70;1.80;;;;;;;16.02;78.86;100944.50;7401479;19;19946;-76
2023/08/07 00:18:01;;;;;;;4.05;1.42;;;;;;;15.98;79.34;100941.38;7402009;19;19937;-77
2023/08/07 00:20:30;;;;;;;2.67;1.30;;;;;;;15.95;79.13;100941.78;7401392;19;19931;-76
2023/08/07 00:22:58;;;;;;;5.15;1.10;;;;;;;15.93;78.73;100930.28;7402013;19;19932;-77
2023/08/07 00:25:27;;;;;;;1.80;1.20;;;;;;;15.97;78.89;100941.56;7401366;19;19923;-76
2023/08/07 00:27:56;;;;;;;4.97;1.50;;;;;;;16.01;78.91;100938.22;7401230;19;19942;-76
2023/08/07 00:30:27;;;;;;;3.05;1.52;;;;;;;16.02;78.72;100948.03;7401538;19;19914;-76
2023/08/07 00:32:55;;;;;;;1.85;1.30;;;;;;;15.97;79.04;100947.00;7401000;19;19938;-76
2023/08/07 00:35:24;;;;;;;5.18;1.40;;;;;;;15.95;78.83;100944.50;7400033;19;19927;-76
2023/08/07 00:37:53;;;;;;;4.90;1.25;;;;;;;15.95;79.59;100947.22;7400864;19;19922;-77
2023/08/07 00:40:21;;;;;;;3.63;1.52;;;;;;;15.93;79.53;100945.75;7399457;19;19953;-76
2023/08/07 00:42:50;;;;;;;3.00;1.35;;;;;;;15.85;79.48;100936.78;7400713;19;19914;-76
2023/08/07 00:45:21;;;;;;;4.03;1.50;;;;;;;15.83;79.59;100946.19;7400797;19;19929;-77
2023/08/07 00:47:52;;;;;;;3.40;1.40;;;;;;;15.82;80.32;100944.50;7400582;19;20280;-76
2023/08/07 00:50:21;;;;;;;3.20;1.40;;;;;;;15.83;79.73;100938.03;7400655;19;19910;-76
2023/08/07 00:52:50;;;;;;;5.78;1.67;;;;;;;15.85;79.92;100949.53;7401325;19;20535;-76
2023/08/07 00:55:19;;;;;;;4.13;1.60;;;;;;;15.86;80.52;100945.75;7400185;19;19931;-76
2023/08/07 00:57:47;;;;;;;4.78;1.50;;;;;;;15.87;80.21;100950.16;7401616;19;19935;-76
2023/08/07 01:00:18;;;;;;;3.22;1.40;;;;;;;15.89;81.05;100958.91;7400127;19;20372;-77
2023/08/07 01:02:50;;;;;;;3.20;1.77;;;;;;;15.82;81.46;100961.66;7400127;19;19931;-76
2023/08/07 01:05:22;;;;;;;4.50;1.73;;;;;;;15.77;82.31;100963.31;7400278;19;20707;-76
2023/08/07 01:07:54;;;;;;;2.72;1.40;;;;;;;15.76;81.42;100961.63;7401071;19;20418;-75
2023/08/07 01:10:24;;;;;;;;;;;;;;;15.59;83.77;100955.78;7406707;19;19928;-76
2023/08/07 01:13:02;;;;;;;3.75;1.63;;;;;;;15.65;82.26;100954.97;7401523;19;19919;-75
2023/08/07 01:15:35;;;;;;;2.08;1.27;;;;;;;15.61;82.45;100961.84;7399153;19;20266;-76
2023/08/07 01:18:05;;;;;;;2.08;1.30;;;;;;;15.61;82.53;100947.44;7400033;19;19938;-76
2023/08/07 01:20:37;;;;;;;4.18;1.40;;;;;;;15.58;82.21;100955.97;7399197;19;19914;-76
2023/08/07 01:23:08;;;;;;;2.70;1.50;;;;;;;15.56;81.91;100961.63;7406253;19;19939;-76
2023/08/07 01:25:38;;;;;;;3.65;1.10;;;;;;;15.57;81.90;100967.91;7406286;19;20321;-76
2023/08/07 01:28:19;;;;;;;3.92;1.50;;;;;;;15.56;82.42;100950.78;7406253;19;19922;-76
2023/08/07 01:30:52;;;;;;;2.30;1.42;;;;;;;15.57;81.92;100954.31;7406042;19;19998;-76
2023/08/07 01:33:31;;;;;;;3.63;1.40;;;;;;;15.50;82.72;100950.72;7405745;19;19937;-76
2023/08/07 01:36:03;;;;;;;4.40;1.45;;;;;;;15.52;82.70;100948.69;7403247;19;20315;-76
2023/08/07 01:38:36;;;;;;;3.90;1.10;;;;;;;15.55;82.29;100949.09;7405455;19;19926;-75
2023/08/07 01:41:06;;;;;;;1.35;1.00;;;;;;;15.50;82.99;100954.31;7405397;19;19923;-75
2023/08/07 01:43:35;;;;;;;2.63;1.30;;;;;;;15.46;83.12;100955.72;7405901;19;19922;-76
2023/08/07 01:46:06;;;;;;;2.72;1.48;;;;;;;15.42;83.41;100962.63;7405642;19;19915;-75
2023/08/07 01:48:35;;;;;;;;;;;;;;;15.25;85.24;100943.16;7407824;19;19915;-76
2023/08/07 01:51:04;;;;;;;2.63;1.30;;;;;;;15.33;84.01;100945.69;7404735;19;19938;-76
2023/08/07 01:53:35;;;;;;;2.90;1.35;;;;;;;15.33;84.01;100942.97;7405315;19;19922;-75
2023/08/07 01:56:03;;;;;;;2.63;1.45;;;;;;;15.30;83.97;100953.41;7404650;19;19923;-76
2023/08/07 01:58:32;;;;;;;5.05;1.60;;;;;;;15.29;83.82;100949.84;7408349;19;19934;-75
2023/08/07 02:01:01;;;;;;;3.03;1.27;;;;;;;15.32;84.15;100954.03;7404698;19;19915;-75
2023/08/07 02:03:29;;;;;;;5.00;1.40;;;;;;;15.35;84.32;100945.50;7404529;19;19938;-76
2023/08/07 02:05:58;;;;;;;3.15;1.65;;;;;;;15.36;84.14;100945.25;7404499;19;19918;-76
2023/08/07 02:08:27;;;;;;;3.30;1.50;;;;;;;15.34;84.58;100952.78;7404419;19;19974;-75
2023/08/07 02:11:01;;;;;;;2.35;1.50;;;;;;;15.35;84.83;100956.34;7404426;19;19915;-76
2023/08/07 02:13:29;;;;;;;3.67;1.30;;;;;;;15.35;84.68;100954.47;7404493;19;19970;-76
2023/08/07 02:15:58;;;;;;;3.50;1.60;;;;;;;15.37;84.67;100954.25;7404110;19;19946;-75
2023/08/07 02:18:26;;;;;;;3.35;1.30;;;;;;;15.36;84.33;100956.13;7404488;19;20373;-75
2023/08/07 02:20:55;;;;;;;2.92;1.35;;;;;;;15.33;84.28;100953.84;7404574;19;19926;-77
2023/08/07 02:23:24;;;;;;;3.80;1.70;;;;;;;15.34;84.75;100968.25;7404337;19;19915;-76
2023/08/07 02:25:53;;;;;;;4.63;1.85;;;;;;;15.33;84.07;100963.84;7404376;19;19914;-76
2023/08/07 02:28:25;;;;;;;2.33;1.17;;;;;;;15.33;84.30;100966.56;7404128;19;19918;-76
2023/08/07 02:30:54;;;;;;;5.18;1.60;;;;;;;15.32;83.82;100960.28;7403804;19;19910;-75
2023/08/07 02:33:22;;;;;;;2.55;1.30;;;;;;;15.30;83.94;100961.56;7403477;19;19919;-76
2023/08/07 02:35:51;;;;;;;1.98;1.13;;;;;;;15.28;83.88;100964.47;7401867;19;19944;-75
2023/08/07 02:38:20;;;;;;;2.72;1.33;;;;;;;15.27;84.04;100961.97;7403988;19;19945;-75
2023/08/07 02:40:48;;;;;;;5.03;1.30;;;;;;;15.23;84.11;100947.97;7401523;19;20340;-75
2023/08/07 02:43:17;;;;;;;3.88;1.27;;;;;;;15.19;84.18;100949.41;7403797;19;20292;-76
2023/08/07 02:45:48;;;;;;;3.15;1.35;;;;;;;15.18;83.77;100947.75;7403597;19;19919;-77
2023/08/07 02:48:17;;;;;;;4.75;1.30;;;;;;;15.14;84.19;100957.34;7404188;19;19919;-76
2023/08/07 02:50:46;;;;;;;3.90;1.42;;;;;;;15.11;84.15;100951.47;7403190;19;19919;-75
2023/08/07 02:53:15;;;;;;;5.03;1.30;;;;;;;15.09;84.13;100954.41;7403640;19;19923;-76
2023/08/07 02:55:47;;;;;;;3.90;1.77;;;;;;;15.08;84.38;100960.88;7403291;19;20360;-76
2023/08/07 02:58:15;;;;;;;;;;;;;;;14.88;85.66;100958.09;7408044;19;19926;-75
2023/08/07 03:00:43;;;;;;;3.50;0.90;;;;;;;14.99;84.27;100956.66;7402936;19;19914;-76
2023/08/07 03:03:15;;;;;;;2.60;1.13;;;;;;;14.95;84.17;100958.13;7402375;19;19941;-76
2023/08/07 03:05:51;;;;;;;4.38;1.33;;;;;;;14.90;84.48;100950.59;7403141;19;20257;-76
2023/08/07 03:08:19;;;;;;;4.00;1.13;;;;;;;14.88;84.68;100949.13;7402958;19;20540;-75
2023/08/07 03:10:55;;;;;;;5.30;1.50;;;;;;;14.84;84.69;100947.88;7402175;19;19943;-76
2023/08/07 03:13:24;;;;;;;2.65;1.70;;;;;;;14.82;84.37;100956.19;7402481;19;19922;-75
2023/08/07 03:15:53;;;;;;;3.30;1.60;;;;;;;14.81;84.41;100953.66;7402114;19;20240;-75
2023/08/07 03:18:24;;;;;;;3.58;1.52;;;;;;;14.80;84.99;100958.25;7402811;19;19941;-76
2023/08/07 03:20:52;;;;;;;3.88;1.63;;;;;;;14.78;84.68;100962.22;7403692;19;19930;-75
2023/08/07 03:23:21;;;;;;;3.20;1.35;;;;;;;14.77;84.58;100960.53;7406400;19;19922;-76
2023/08/07 03:25:50;;;;;;;2.33;1.50;;;;;;;14.78;84.59;100965.78;7405587;19;19918;-75
2023/08/07 03:28:18;;;;;;;3.55;1.55;;;;;;;14.79;84.41;100961.19;7402851;19;19919;-76
2023/08/07 03:30:48;;;;;;;2.65;1.40;;;;;;;14.75;84.85;100954.50;7401891;19;19945;-76
2023/08/07 03:33:16;;;;;;;7.35;1.70;;;;;;;14.78;84.51;100956.78;7402055;19;19938;-75
2023/08/07 03:35:48;;;;;;;3.03;1.35;;;;;;;14.78;84.71;100954.94;7400674;19;20474;-76
2023/08/07 03:38:16;;;;;;;3.78;1.13;;;;;;;14.77;84.58;100953.25;7400413;19;19949;-76
2023/08/07 03:40:45;;;;;;;3.83;1.38;;;;;;;14.75;84.74;100963.47;7400431;19;19946;-75
2023/08/07 03:43:13;;;;;;;4.53;1.70;;;;;;;14.74;84.67;100967.22;7401767;19;19950;-76
2023/08/07 03:45:42;;;;;;;5.38;1.70;;;;;;;14.74;84.82;100964.50;7401448;19;19939;-76
2023/08/07 03:48:11;;;;;;;4.55;1.35;;;;;;;14.73;84.83;100954.69;7401975;19;19914;-76
2023/08/07 03:50:40;;;;;;;4.40;1.70;;;;;;;14.73;84.81;100954.69;7401458;19;19915;-75
2023/08/07 03:53:11;;;;;;;4.50;1.90;;;;;;;14.70;85.19;100951.56;7401809;19;19926;-77
2023/08/07 03:55:41;;;;;;;2.58;1.50;;;;;;;14.68;85.26;100950.91;7401005;19;19950;-76
2023/08/07 03:58:10;;;;;;;3.95;1.17;;;;;;;14.69;85.41;100956.13;7402543;19;20305;-76
2023/08/07 04:00:39;;;;;;;5.93;2.40;;;;;;;14.67;85.54;100955.47;7400565;19;19946;-76
2023/08/07 04:03:07;;;;;;;2.10;1.50;;;;;;;14.66;85.42;100958.41;7400905;19;19928;-76
2023/08/07 04:05:36;;;;;;;4.35;1.50;;;;;;;14.66;85.66;100956.53;7400649;19;20364;-76
2023/08/07 04:08:05;;;;;;;3.65;1.40;;;;;;;14.66;85.46;100958.41;7400872;19;19926;-76
2023/08/07 04:10:36;;;;;;;2.75;1.10;;;;;;;14.65;85.94;100945.88;7400531;19;19922;-75
2023/08/07 04:13:05;;;;;;;5.38;1.80;;;;;;;14.65;85.55;100954.03;7400481;19;19918;-75
2023/08/07 04:15:33;;;;;;;9.10;1.75;;;;;;;14.65;85.84;100964.88;7400427;19;19926;-76
2023/08/07 04:18:02;;;;;;;6.10;1.50;;;;;;;14.65;85.72;100959.44;7399193;19;20420;-76
2023/08/07 04:20:30;;;;;;;4.60;1.35;;;;;;;14.67;85.58;100960.09;7400351;19;19911;-76
2023/08/07 04:22:59;;;;;;;9.23;2.38;;;;;;;14.69;85.28;100964.25;7399963;19;19993;-76
2023/08/07 04:25:27;;;;;;;3.38;1.63;;;;;;;14.68;85.95;100968.00;7400222;19;19926;-75
2023/08/07 04:27:58;;;;;;;3.88;1.30;;;;;;;14.68;86.13;100964.47;7400158;19;20377;-76
2023/08/07 04:30:27;;;;;;;4.72;1.33;;;;;;;14.68;86.05;100965.28;7400021;19;20273;-76
2023/08/07 04:32:56;;;;;;;4.97;1.48;;;;;;;14.72;85.79;100966.56;7399827;19;19914;-76
2023/08/07 04:35:24;;;;;;;8.23;1.50;;;;;;;14.76;85.77;100967.84;7398617;19;19936;-76
2023/08/07 04:37:53;;;;;;;5.45;1.63;;;;;;;14.79;85.92;100966.63;7398446;19;20352;-76
2023/08/07 04:40:22;;;;;;;3.20;1.30;;;;;;;14.79;85.58;100964.75;7398510;19;20677;-76
2023/08/07 04:42:51;;;;;;;5.03;1.20;;;;;;;14.82;85.93;100966.19;7399440;19;19954;-76
2023/08/07 04:45:22;;;;;;;3.47;1.15;;;;;;;14.83;85.99;100970.59;7399532;19;20357;-76
2023/08/07 04:47:51;;;;;;;6.38;1.33;;;;;;;14.86;85.85;100968.31;7399342;19;20317;-76
2023/08/07 04:50:20;;;;;;;5.85;1.38;;;;;;;14.92;85.41;100969.38;7399322;19;19923;-76
2023/08/07 04:52:49;;;;;;;8.25;1.38;;;;;;;14.96;85.25;100976.91;7399161;19;20244;-76
2023/08/07 04:55:18;;;;;;;3.72;1.33;;;;;;;14.99;84.88;100979.22;7399229;19;19919;-76
2023/08/07 04:57:47;;;;;;;9.43;1.80;;;;;;;15.00;85.01;100966.47;7405659;19;19918;-76
2023/08/07 05:00:17;;;;;;;3.83;1.20;;;;;;;15.02;85.06;100969.81;7405780;19;19915;-76
2023/08/07 05:02:48;;;;;;;6.30;1.50;;;;;;;15.05;84.90;100976.72;7405579;19;20344;-76
2023/08/07 05:05:17;;;;;;;7.57;1.63;;;;;;;15.08;85.25;100984.44;7405829;19;19918;-76
2023/08/07 05:07:45;;;;;;;8.85;1.80;;;;;;;15.10;85.14;100994.06;7405347;19;19922;-76
2023/08/07 05:10:14;;;;;;;8.43;1.92;;;;;;;15.13;85.15;100988.25;7405469;19;19919;-76
2023/08/07 05:12:42;;;;;;;9.93;1.73;;;;;;;15.15;84.90;100988.00;7405525;19;19922;-76
2023/08/07 05:15:12;;;;;;;9.85;1.52;;;;;;;15.13;85.19;100985.53;7405391;19;19942;-76
2023/08/07 05:17:40;;;;;;;5.90;1.58;;;;;;;15.09;85.44;100991.56;7404084;19;20475;-76
2023/08/07 05:20:13;;;;;;;10.55;1.90;;;;;;;15.08;85.83;100990.72;7405464;19;19926;-76
2023/08/07 05:22:41;;;;;;;12.73;1.85;;;;;;;15.10;84.50;101006.81;7405165;19;19915;-76
2023/08/07 05:25:12;;;;;;;7.43;1.50;;;;;;;15.11;84.40;101003.03;7405488;19;19915;-76
2023/08/07 05:27:41;;;;;;;8.02;1.70;;;;;;;15.13;84.79;101004.53;7404872;19;19919;-76
2023/08/07 05:30:10;;;;;;;6.32;1.75;;;;;;;15.17;84.60;101010.38;7405184;19;20546;-76
2023/08/07 05:32:39;;;;;;;8.20;2.10;;;;;;;15.19;84.66;101022.69;7405281;19;19914;-76
2023/08/07 05:35:11;;;;;;;6.68;1.83;;;;;;;15.20;84.07;101013.50;7404642;19;19959;-76
2023/08/07 05:37:40;;;;;;;5.55;1.60;;;;;;;15.24;84.22;101022.06;7408495;19;19930;-75
2023/08/07 05:40:11;;;;;;;7.38;1.95;;;;;;;15.27;83.99;101033.34;7405536;19;19922;-76
2023/08/07 05:42:40;;;;;;;6.90;1.95;;;;;;;15.28;83.57;101034.19;7405350;19;19919;-76
2023/08/07 05:45:10;;;;;;;7.05;1.40;;;;;;;15.29;83.07;101034.00;7404786;19;19923;-76
2023/08/07 05:47:39;;;;;;;7.78;2.35;;;;;;;15.28;83.04;101039.63;7404301;19;19930;-76
2023/08/07 05:50:09;;;;;;;7.57;1.95;;;;;;;15.28;82.98;101037.75;7404240;19;19922;-76
2023/08/07 05:52:40;;;;;;;8.25;2.15;;;;;;;15.32;82.65;101040.88;7404138;19;20344;-76
2023/08/07 05:55:09;;;;;;;8.18;2.65;;;;;;;15.35;82.79;101041.34;7404065;19;19938;-76
2023/08/07 05:57:38;;;;;;;11.73;2.42;;;;;;;15.40;83.25;101038.03;7405970;19;19926;-76
2023/08/07 06:00:13;;;;;;;8.55;2.05;;;;;;;15.44;83.37;101047.44;7404005;19;19918;-76
2023/08/07 06:02:42;;;;;;;11.40;2.10;;;;;;;15.47;83.08;101038.03;7403939;19;19918;-76
2023/08/07 06:05:13;;;;;;;9.32;2.40;;;;;;;15.51;82.76;101045.59;7403534;19;19921;-76
2023/08/07 06:07:45;;;;;;;9.45;2.08;;;;;;;15.52;82.76;101041.00;7402748;19;19981;-76
2023/08/07 06:10:13;;;;;;;8.10;2.03;;;;;;;15.55;83.01;101048.72;7404153;19;19918;-76
2023/08/07 06:12:42;;;;;;;10.27;2.40;;;;;;;15.55;81.82;101051.44;7403950;19;19922;-76
2023/08/07 06:15:11;;;;;;;8.40;2.50;;;;;;;15.58;81.49;101053.75;7403560;19;19915;-76
2023/08/07 06:17:41;;;;;;;9.30;2.65;;;;;;;15.60;80.90;101057.09;7402794;19;20328;-76
2023/08/07 06:20:14;;;;;;;7.63;1.98;;;;;;;15.64;80.35;101066.50;7403996;19;19933;-76
2023/08/07 06:22:45;;;;;;;14.32;2.47;;;;;;;15.67;80.05;101066.09;7403384;19;19915;-75
2023/08/07 06:25:14;;;;;;;10.23;2.92;;;;;;;15.68;80.24;101078.63;7403340;19;19919;-76
2023/08/07 06:27:42;;;;;;;8.57;1.88;;;;;;;15.64;79.81;101094.50;7403230;19;19918;-76
2023/08/07 06:30:13;;;;;;;13.23;2.30;;;;;;;15.57;80.71;101103.69;7403198;19;19919;-76
2023/08/07 06:32:42;;;;;;;4.07;1.40;;;;;;;15.43;81.55;101098.16;7403846;19;19999;-76
2023/08/07 06:35:11;;;;;;;10.63;1.83;;;;;;;15.31;81.92;101120.66;7401984;19;19919;-76
2023/08/07 06:37:41;;;;;;;3.70;1.25;;;;;;;15.22;81.89;101101.00;7402449;19;20349;-76
2023/08/07 06:40:13;;;;;;;5.90;1.80;;;;;;;15.29;82.26;101101.03;7401556;19;20006;-75
2023/08/07 06:43:01;;;;;;;3.97;1.60;;;;;;;15.33;82.10;101089.56;7401393;19;19933;-76
2023/08/07 06:45:30;;;;;;;10.00;2.20;;;;;;;15.38;82.19;101099.81;7402836;19;19919;-76
2023/08/07 06:47:59;;;;;;;6.57;1.83;;;;;;;15.35;82.00;101098.34;7402711;19;19919;-76
2023/08/07 06:50:27;;;;;;;10.32;2.10;;;;;;;15.35;82.24;101090.22;7402427;19;19942;-76
2023/08/07 06:52:56;;;;;;;7.40;1.52;;;;;;;15.33;82.04;101099.56;7402482;19;19918;-75
2023/08/07 06:55:28;;;;;;;5.07;1.67;;;;;;;15.36;82.22;101086.44;7402301;19;19922;-76
2023/08/07 06:57:57;;;;;;;7.38;1.63;;;;;;;15.42;82.18;101093.78;7405032;19;20352;-76
2023/08/07 07:00:26;;;;;;;5.95;1.30;;;;;;;15.52;81.93;101095.31;7402347;19;19922;-76
2023/08/07 07:02:55;;;;;;;10.63;1.80;;;;;;;15.63;81.76;101092.81;7402548;19;20654;-76
2023/08/07 07:05:24;;;;;;;7.35;1.75;;;;;;;15.81;81.49;101087.66;7401876;19;19921;-76
2023/08/07 07:07:52;;;;;;;5.95;2.05;;;;;;;16.03;81.19;101095.63;7402503;19;19927;-76
2023/08/07 07:10:21;;;;;;;8.57;2.63;;;;;;;16.13;81.08;101099.63;7402164;19;19915;-76
2023/08/07 07:12:52;;;;;;;6.18;1.02;;;;;;;16.06;77.30;101135.97;7403375;19;19915;-76
2023/08/07 07:15:21;;;;;;;4.22;1.40;;;;;;;16.02;78.61;101112.97;7402316;19;19922;-76
2023/08/07 07:17:52;;;;;;;;;;;;;;;15.87;77.70;101111.28;7403700;19;19918;-76
2023/08/07 07:20:21;;;;;;;5.70;1.45;;;;;;;15.96;77.58;101116.53;7400192;19;19922;-75
2023/08/07 07:22:50;;;;;;;6.95;1.35;;;;;;;16.01;76.96;101124.88;7401822;19;19937;-75
2023/08/07 07:25:18;;;;;;;5.00;1.55;;;;;;;16.07;77.11;101124.91;7401825;19;19950;-77
2023/08/07 07:27:52;;;;;;;7.35;2.00;;;;;;;16.12;77.16;101122.41;7402901;19;20568;-79
2023/08/07 07:30:21;;;;;;;9.02;1.95;;;;;;;16.12;77.02;101127.84;7407918;19;19914;-75
2023/08/07 07:32:50;;;;;;;11.57;1.98;;;;;;;16.14;76.79;101133.91;7401982;19;19922;-76
2023/08/07 07:35:19;;;;;;;6.07;1.58;;;;;;;16.13;77.45;101132.25;7400989;19;19922;-76
2023/08/07 07:37:47;;;;;;;7.03;1.90;;;;;;;16.09;76.69;101141.81;7401894;19;19932;-74
2023/08/07 07:40:16;;;;;;;8.05;1.58;;;;;;;16.07;76.59;101143.09;7400301;19;19925;-76
2023/08/07 07:42:45;;;;;;;10.23;1.95;;;;;;;15.97;76.72;101137.22;7401300;19;19918;-76
2023/08/07 07:45:16;;;;;;;10.65;1.83;;;;;;;16.03;76.65;101136.41;7401305;19;19919;-77
2023/08/07 07:47:45;;;;;;;6.05;1.23;;;;;;;16.09;71.04;101136.38;7403165;19;19926;-76
2023/08/07 07:50:14;;;;;;;7.38;1.60;;;;;;;16.24;72.55;101138.94;7405089;19;19915;-77
2023/08/07 07:52:43;;;;;;;6.85;1.63;;;;;;;16.26;69.98;101143.13;7404482;19;19937;-77
2023/08/07 07:55:13;;;;;;;6.72;1.70;;;;;;;16.18;69.17;101145.22;7401637;19;19911;-76
2023/08/07 07:57:42;;;;;;;7.78;1.70;;;;;;;16.11;68.92;101156.06;7403934;19;19919;-76
2023/08/07 08:00:14;;;;;;;6.00;1.73;;;;;;;16.06;68.27;101160.44;7400769;19;19914;-76
2023/08/07 08:02:46;;;;;;;5.65;1.73;;;;;;;16.16;69.93;101153.56;7400623;19;20624;-76
2023/08/07 08:05:15;;;;;;;7.57;1.55;;;;;;;16.31;68.94;101172.41;7400520;19;19919;-76
2023/08/07 08:07:44;;;;;;;6.85;1.98;;;;;;;16.48;66.81;101205.50;7400588;19;19926;-76
2023/08/07 08:10:13;;;;;;;7.20;1.40;;;;;;;16.62;66.08;101163.66;7400136;19;20360;-76
2023/08/07 08:12:42;;;;;;;7.63;1.40;;;;;;;16.68;65.00;101171.84;7400305;19;20332;-76
2023/08/07 08:15:11;;;;;;;5.22;1.10;;;;;;;16.72;65.38;101174.97;7405907;19;20333;-76
2023/08/07 08:17:42;;;;;;;6.25;1.75;;;;;;;16.74;64.56;101176.44;7401195;19;19921;-76
2023/08/07 08:20:18;;;;;;;5.15;1.60;;;;;;;16.71;64.18;101168.69;7402232;19;19974;-76
2023/08/07 08:22:46;;;;;;;6.03;1.55;;;;;;;16.77;64.49;101192.34;7400670;19;19931;-76
2023/08/07 08:25:17;;;;;;;4.35;1.55;;;;;;;16.87;64.80;101194.63;7401095;19;20259;-75
2023/08/07 08:27:46;;;;;;;7.30;1.50;;;;;;;16.95;63.44;101180.84;7399966;19;19918;-76
2023/08/07 08:30:15;;;;;;;9.07;1.65;;;;;;;16.95;62.71;101180.84;7399226;19;19936;-76
2023/08/07 08:32:43;;;;;;;6.72;1.35;;;;;;;16.88;62.09;101179.16;7399832;19;19915;-78
2023/08/07 08:35:15;;;;;;;6.35;1.75;;;;;;;16.88;62.54;101200.91;7398357;19;19933;-76
2023/08/07 08:37:43;;;;;;;7.00;1.77;;;;;;;16.84;63.02;101213.25;7399641;19;19918;-76
2023/08/07 08:40:17;;;;;;;6.55;1.52;;;;;;;16.79;62.89;101192.13;7397812;19;20451;-75
2023/08/07 08:42:47;;;;;;;8.90;1.90;;;;;;;16.68;63.43;101211.81;7400044;19;19911;-75
2023/08/07 08:45:17;;;;;;;5.13;1.63;;;;;;;16.63;64.00;101204.28;7399410;19;20654;-76
2023/08/07 08:47:47;;;;;;;6.75;2.00;;;;;;;16.63;64.69;101215.16;7398971;19;19923;-76
2023/08/07 08:50:18;;;;;;;9.00;1.85;;;;;;;16.67;63.49;101210.97;7399318;19;19929;-76
2023/08/07 08:52:48;;;;;;;8.18;1.70;;;;;;;16.82;64.23;101213.50;7398988;19;19922;-76
2023/08/07 08:55:16;;;;;;;12.98;2.88;;;;;;;16.91;64.53;101217.69;7399134;19;19918;-76
2023/08/07 08:57:45;;;;;;;9.70;1.90;;;;;;;16.96;63.63;101212.41;7402339;19;19922;-76
2023/08/07 09:00:20;;;;;;;8.93;1.75;;;;;;;17.06;62.29;101212.84;7397035;19;19934;-76
2023/08/07 09:02:49;;;;;;;6.90;1.60;;;;;;;17.27;62.43;101208.19;7399551;19;19927;-76
2023/08/07 09:05:23;;;;;;;6.28;1.40;;;;;;;17.23;61.37;101218.69;7401672;19;19926;-76
2023/08/07 09:07:52;;;;;;;5.30;1.45;;;;;;;17.03;62.59;101245.94;7401385;19;19935;-76
2023/08/07 09:10:20;;;;;;;5.90;1.55;;;;;;;16.73;62.92;101225.63;7401819;19;19927;-75
2023/08/07 09:12:57;;;;;;;5.43;1.45;;;;;;;16.81;63.16;101236.31;7400933;19;19938;-75
2023/08/07 09:15:27;;;;;;;9.18;1.60;;;;;;;16.86;63.48;101239.25;7402079;19;19915;-75
2023/08/07 09:17:57;;;;;;;6.28;1.90;;;;;;;16.76;63.40;101231.50;7401785;19;19907;-77
2023/08/07 09:20:29;;;;;;;6.55;1.48;;;;;;;16.76;63.30;101238.81;7396556;19;20332;-76
2023/08/07 09:22:58;;;;;;;4.55;1.30;;;;;;;16.84;62.67;101230.44;7398602;19;19935;-76
2023/08/07 09:25:31;;;;;;;6.28;1.92;;;;;;;16.99;62.83;101232.97;7398672;19;19918;-76
2023/08/07 09:27:59;;;;;;;10.88;2.45;;;;;;;17.01;64.01;101258.91;7398266;19;19922;-75
2023/08/07 09:30:30;;;;;;;5.60;1.25;;;;;;;16.75;65.03;101245.28;7398099;19;19938;-77
2023/08/07 09:33:00;;;;;;;8.18;1.83;;;;;;;16.39;68.50;101261.13;7398521;19;19994;-77
2023/08/07 09:35:33;;;;;;;8.38;1.80;;;;;;;15.81;74.29;101260.69;7396032;19;19941;-77
2023/08/07 09:38:02;;;;;;;12.57;1.75;;;;;;;15.44;75.19;101270.88;7397995;19;19918;-77
2023/08/07 09:40:32;;;;;;;8.52;2.00;;;;;;;15.34;74.88;101267.69;7395147;19;19926;-76
2023/08/07 09:43:03;;;;;;;7.97;1.73;;;;;;;15.21;72.55;101266.75;7401791;19;19923;-75
2023/08/07 09:45:33;;;;;;;4.90;1.55;;;;;;;15.19;72.72;101280.50;7404849;19;20332;-75
2023/08/07 09:48:03;;;;;;;5.80;1.42;;;;;;;15.15;70.88;101281.09;7404833;19;19919;-76
2023/08/07 09:50:34;;;;;;;5.68;1.73;;;;;;;15.21;70.42;101270.31;7405192;19;19918;-75
2023/08/07 09:53:03;;;;;;;7.00;1.40;;;;;;;15.30;70.89;101271.00;7406287;19;19954;-76
2023/08/07 09:55:31;;;;;;;5.78;1.80;;;;;;;15.38;70.78;101265.41;7406284;19;19937;-77
2023/08/07 09:58:02;;;;;;;8.07;1.50;;;;;;;15.63;69.73;101282.09;7409663;19;20365;-76
2023/08/07 10:00:36;;;;;;;5.43;1.75;;;;;;;15.95;69.60;101273.28;7402544;19;19925;-76
2023/08/07 10:03:07;;;;;;;11.77;2.22;;;;;;;16.32;68.86;101266.53;7406940;19;19910;-74
2023/08/07 10:05:38;;;;;;;7.03;1.60;;;;;;;16.67;67.44;101261.81;7404463;19;19945;-76
2023/08/07 10:08:07;;;;;;;11.68;1.65;;;;;;;16.79;66.48;101265.59;7403704;19;19922;-76
2023/08/07 10:10:36;;;;;;;5.88;1.70;;;;;;;17.03;64.41;101259.56;7404459;19;19918;-76
2023/08/07 10:13:05;;;;;;;3.88;1.20;;;;;;;17.12;61.89;101262.91;7404064;19;19918;-75
2023/08/07 10:15:35;;;;;;;5.32;1.55;;;;;;;17.22;60.35;101280.47;7403916;19;19918;-76
2023/08/07 10:18:04;;;;;;;5.68;1.40;;;;;;;17.33;58.68;101278.16;7403970;19;19915;-75
2023/08/07 10:20:33;;;;;;;4.85;1.35;;;;;;;17.36;57.44;101285.91;7402949;19;20387;-77
2023/08/07 10:23:10;;;;;;;6.25;1.65;;;;;;;17.21;54.79;101305.19;7404161;19;20286;-75
2023/08/07 10:25:42;;;;;;;10.13;2.55;;;;;;;17.13;57.30;101287.16;7403686;19;19922;-75
2023/08/07 10:28:13;;;;;;;6.00;1.40;;;;;;;17.04;57.68;101318.38;7403971;19;19938;-76
2023/08/07 10:30:44;;;;;;;7.95;1.52;;;;;;;16.88;58.03;101297.00;7403994;19;19923;-76
2023/08/07 10:33:14;;;;;;;8.88;1.58;;;;;;;16.67;60.60;101327.94;7403943;19;19923;-75
2023/08/07 10:35:47;;;;;;;4.75;1.40;;;;;;;16.61;61.24;101304.28;7402382;19;19938;-75
2023/08/07 10:38:22;;;;;;;7.07;2.15;;;;;;;16.51;60.27;101301.09;7403718;19;19911;-75
2023/08/07 10:41:05;;;;;;;7.70;1.55;;;;;;;16.59;61.76;101311.81;7400528;19;19923;-75
2023/08/07 10:43:33;;;;;;;4.20;1.63;;;;;;;16.59;62.02;101313.69;7403710;19;20336;-76
2023/08/07 10:46:13;;;;;;;11.00;2.22;;;;;;;16.57;61.62;101305.72;7403294;19;19942;-75
2023/08/07 10:48:43;;;;;;;6.93;1.50;;;;;;;16.64;62.32;101319.38;7403797;19;19915;-76
2023/08/07 10:51:15;;;;;;;6.35;1.88;;;;;;;16.64;63.37;101311.22;7404617;19;20251;-77
2023/08/07 10:53:47;;;;;;;9.32;1.90;;;;;;;16.70;63.23;101304.91;7403716;19;20273;-75
2023/08/07 10:56:20;;;;;;;8.80;1.90;;;;;;;16.76;62.86;101313.13;7404711;19;20348;-76
2023/08/07 10:58:54;;;;;;;8.45;2.00;;;;;;;16.74;62.32;101300.75;7403287;19;19915;-75
2023/08/07 11:01:25;;;;;;;7.25;1.65;;;;;;;16.74;62.60;101328.78;7402992;19;19933;-76
2023/08/07 11:03:55;;;;;;;7.13;1.85;;;;;;;16.63;61.69;101320.41;7404855;19;19918;-76
2023/08/07 11:06:30;;;;;;;8.45;1.55;;;;;;;16.48;63.06;101336.84;7407159;19;19915;-76
2023/08/07 11:09:03;;;;;;;6.82;2.10;;;;;;;16.19;64.84;101348.03;7405100;19;20244;-76
2023/08/07 11:11:32;;;;;;;3.72;1.50;;;;;;;16.00;66.06;101316.19;7404997;19;19994;-76
2023/08/07 11:14:01;;;;;;;4.95;1.80;;;;;;;15.97;64.54;101322.84;7404476;19;19922;-75
2023/08/07 11:16:30;;;;;;;6.20;1.55;;;;;;;16.15;64.91;101330.44;7404657;19;19915;-75
2023/08/07 11:18:59;;;;;;;5.63;1.58;;;;;;;16.29;64.95;101327.59;7404614;19;19961;-76
2023/08/07 11:21:28;;;;;;;10.27;1.90;;;;;;;16.47;64.46;101328.91;7405129;19;19934;-77
2023/08/07 11:23:57;;;;;;;7.22;1.77;;;;;;;16.95;63.29;101338.69;7403144;19;20308;-76
2023/08/07 11:26:29;;;;;;;8.93;1.85;;;;;;;16.96;61.93;101313.13;7403360;19;19946;-77
2023/08/07 11:28:58;;;;;;;5.63;2.22;;;;;;;17.23;59.65;101363.00;7403312;19;19914;-76
2023/08/07 11:31:28;;;;;;;4.25;1.40;;;;;;;17.18;59.00;101322.78;7402713;19;19985;-76
2023/08/07 11:33:59;;;;;;;7.93;1.30;;;;;;;17.42;56.89;101306.84;7403774;19;19945;-76
2023/08/07 11:36:28;;;;;;;6.45;1.20;;;;;;;17.78;54.17;101318.13;7403758;19;19914;-76